sensor_id;sensor_type;location;lat;lon;timestamp;pressure;altitude;pressure_sealevel;temperature;humidity
22572;BME280;11452;53.368;14.658;2024-03-08T00:04:16;102011.60;;;-0.79;95.35
22572;BME280;11452;53.368;14.658;2024-03-08T00:09:21;102019.45;;;-0.81;95.55
22572;BME280;11452;53.368;14.658;2024-03-08T00:14:27;102013.28;;;-0.84;95.66
22572;BME280;11452;53.368;14.658;2024-03-08T00:19:33;102008.88;;;-0.87;95.94
22572;BME280;11452;53.368;14.658;2024-03-08T00:24:39;102007.56;;;-0.87;96.03
22572;BME280;11452;53.368;14.658;2024-03-08T00:29:44;102005.38;;;-0.87;96.34
22572;BME280;11452;53.368;14.658;2024-03-08T00:34:51;102004.92;;;-0.88;96.39
22572;BME280;11452;53.368;14.658;2024-03-08T00:39:57;102004.02;;;-0.90;96.14
22572;BME280;11452;53.368;14.658;2024-03-08T00:45:04;102004.02;;;-0.93;96.45
22572;BME280;11452;53.368;14.658;2024-03-08T00:50:11;101999.63;;;-0.94;96.20
22572;BME280;11452;53.368;14.658;2024-03-08T00:55:17;101998.77;;;-0.93;96.20
22572;BME280;11452;53.368;14.658;2024-03-08T01:00:23;101997.45;;;-0.93;96.46
22572;BME280;11452;53.368;14.658;2024-03-08T01:05:29;101983.84;;;-0.97;96.40
22572;BME280;11452;53.368;14.658;2024-03-08T01:10:34;101983.87;;;-0.96;96.88
22572;BME280;11452;53.368;14.658;2024-03-08T01:15:41;101984.75;;;-0.92;96.91
22572;BME280;11452;53.368;14.658;2024-03-08T01:20:47;101979.03;;;-0.98;96.92
22572;BME280;11452;53.368;14.658;2024-03-08T01:25:52;101974.23;;;-0.97;97.15
22572;BME280;11452;53.368;14.658;2024-03-08T01:31:00;101967.25;;;-0.96;97.31
22572;BME280;11452;53.368;14.658;2024-03-08T01:36:06;101968.17;;;-0.93;97.77
22572;BME280;11452;53.368;14.658;2024-03-08T01:41:12;101963.77;;;-0.95;97.50
22572;BME280;11452;53.368;14.658;2024-03-08T01:46:19;101956.72;;;-0.99;97.48
22572;BME280;11452;53.368;14.658;2024-03-08T01:51:28;101949.67;;;-1.03;97.78
22572;BME280;11452;53.368;14.658;2024-03-08T01:56:33;101956.13;;;-1.11;97.73
22572;BME280;11452;53.368;14.658;2024-03-08T02:01:39;101952.63;;;-1.15;97.75
22572;BME280;11452;53.368;14.658;2024-03-08T02:06:45;101949.11;;;-1.15;98.04
22572;BME280;11452;53.368;14.658;2024-03-08T02:11:51;101944.67;;;-1.21;97.91
22572;BME280;11452;53.368;14.658;2024-03-08T02:17:02;101937.66;;;-1.22;98.14
22572;BME280;11452;53.368;14.658;2024-03-08T02:22:09;101938.48;;;-1.26;98.35
22572;BME280;11452;53.368;14.658;2024-03-08T02:27:15;101937.61;;;-1.26;98.46
22572;BME280;11452;53.368;14.658;2024-03-08T02:32:24;101930.58;;;-1.29;98.60
22572;BME280;11452;53.368;14.658;2024-03-08T02:37:30;101925.74;;;-1.34;98.57
22572;BME280;11452;53.368;14.658;2024-03-08T02:42:36;101920.91;;;-1.36;98.77
22572;BME280;11452;53.368;14.658;2024-03-08T02:47:41;101923.47;;;-1.41;98.66
22572;BME280;11452;53.368;14.658;2024-03-08T02:52:47;101927.31;;;-1.47;98.60
22572;BME280;11452;53.368;14.658;2024-03-08T02:57:53;101920.26;;;-1.54;98.50
22572;BME280;11452;53.368;14.658;2024-03-08T03:03:02;101917.68;;;-1.51;98.66
22572;BME280;11452;53.368;14.658;2024-03-08T03:08:08;101914.68;;;-1.44;98.89
22572;BME280;11452;53.368;14.658;2024-03-08T03:13:14;101914.06;;;-1.22;99.23
22572;BME280;11452;53.368;14.658;2024-03-08T03:18:20;101912.12;;;-0.99;99.43
22572;BME280;11452;53.368;14.658;2024-03-08T03:23:28;101905.11;;;-1.00;99.09
22572;BME280;11452;53.368;14.658;2024-03-08T03:28:35;101906.31;;;-1.10;98.98
22572;BME280;11452;53.368;14.658;2024-03-08T03:33:42;101897.98;;;-1.15;98.84
22572;BME280;11452;53.368;14.658;2024-03-08T03:38:48;101896.10;;;-1.25;98.77
22572;BME280;11452;53.368;14.658;2024-03-08T03:43:56;101900.86;;;-1.29;98.78
22572;BME280;11452;53.368;14.658;2024-03-08T03:49:02;101900.83;;;-1.34;98.76
22572;BME280;11452;53.368;14.658;2024-03-08T03:54:08;101897.70;;;-1.40;98.59
22572;BME280;11452;53.368;14.658;2024-03-08T03:59:14;101885.44;;;-1.42;98.64
22572;BME280;11452;53.368;14.658;2024-03-08T04:04:20;101895.86;;;-1.47;98.53
22572;BME280;11452;53.368;14.658;2024-03-08T04:09:26;101892.78;;;-1.48;98.57
22572;BME280;11452;53.368;14.658;2024-03-08T04:14:32;101896.64;;;-1.55;98.48
22572;BME280;11452;53.368;14.658;2024-03-08T04:19:38;101889.62;;;-1.58;98.56
22572;BME280;11452;53.368;14.658;2024-03-08T04:24:45;101889.06;;;-1.66;98.39
22572;BME280;11452;53.368;14.658;2024-03-08T04:29:51;101887.30;;;-1.70;98.53
22572;BME280;11452;53.368;14.658;2024-03-08T04:34:57;101885.92;;;-1.75;98.43
22572;BME280;11452;53.368;14.658;2024-03-08T04:40:06;101875.46;;;-1.73;98.61
22572;BME280;11452;53.368;14.658;2024-03-08T04:45:12;101879.48;;;-1.67;98.55
22572;BME280;11452;53.368;14.658;2024-03-08T04:50:19;101876.86;;;-1.67;98.62
22572;BME280;11452;53.368;14.658;2024-03-08T04:55:24;101870.31;;;-1.64;98.52
22572;BME280;11452;53.368;14.658;2024-03-08T05:00:30;101872.89;;;-1.70;98.56
22572;BME280;11452;53.368;14.658;2024-03-08T05:05:36;101867.54;;;-1.78;98.46
22572;BME280;11452;53.368;14.658;2024-03-08T05:10:41;101870.08;;;-1.86;98.47
22572;BME280;11452;53.368;14.658;2024-03-08T05:15:50;101867.42;;;-1.89;98.54
22572;BME280;11452;53.368;14.658;2024-03-08T05:20:56;101869.09;;;-1.94;98.61
22572;BME280;11452;53.368;14.658;2024-03-08T05:26:02;101865.61;;;-1.93;98.66
22572;BME280;11452;53.368;14.658;2024-03-08T05:31:09;101860.45;;;-1.85;98.95
22572;BME280;11452;53.368;14.658;2024-03-08T05:36:15;101862.66;;;-1.83;98.84
22572;BME280;11452;53.368;14.658;2024-03-08T05:41:21;101865.80;;;-1.78;99.08
22572;BME280;11452;53.368;14.658;2024-03-08T05:46:27;101859.45;;;-1.61;99.35
22572;BME280;11452;53.368;14.658;2024-03-08T05:51:33;101853.53;;;-1.43;99.59
22572;BME280;11452;53.368;14.658;2024-03-08T05:56:40;101847.30;;;-1.10;99.76
22572;BME280;11452;53.368;14.658;2024-03-08T06:01:49;101843.98;;;-0.93;99.74
22572;BME280;11452;53.368;14.658;2024-03-08T06:06:55;101850.24;;;-0.76;99.83
22572;BME280;11452;53.368;14.658;2024-03-08T06:12:03;101850.30;;;-0.67;99.73
22572;BME280;11452;53.368;14.658;2024-03-08T06:17:11;101849.95;;;-0.53;99.78
22572;BME280;11452;53.368;14.658;2024-03-08T06:22:17;101859.71;;;-0.38;99.74
22572;BME280;11452;53.368;14.658;2024-03-08T06:27:24;101855.88;;;-0.17;99.65
22572;BME280;11452;53.368;14.658;2024-03-08T06:32:30;101857.30;;;0.05;99.44
22572;BME280;11452;53.368;14.658;2024-03-08T06:37:37;101858.25;;;0.22;99.23
22572;BME280;11452;53.368;14.658;2024-03-08T06:42:43;101851.31;;;0.33;99.16
22572;BME280;11452;53.368;14.658;2024-03-08T06:47:50;101851.81;;;0.52;98.77
22572;BME280;11452;53.368;14.658;2024-03-08T06:52:55;101848.75;;;0.60;98.47
22572;BME280;11452;53.368;14.658;2024-03-08T06:58:01;101851.84;;;0.69;98.45
22572;BME280;11452;53.368;14.658;2024-03-08T07:03:08;101855.37;;;0.82;98.46
22572;BME280;11452;53.368;14.658;2024-03-08T07:08:15;101855.82;;;0.95;98.21
22572;BME280;11452;53.368;14.658;2024-03-08T07:13:21;101857.62;;;1.11;98.44
22572;BME280;11452;53.368;14.658;2024-03-08T07:18:26;101856.27;;;1.32;98.59
22572;BME280;11452;53.368;14.658;2024-03-08T07:23:35;101859.77;;;1.51;98.53
22572;BME280;11452;53.368;14.658;2024-03-08T07:28:59;101861.95;;;1.73;98.60
22572;BME280;11452;53.368;14.658;2024-03-08T07:34:05;101854.88;;;1.90;98.65
22572;BME280;11452;53.368;14.658;2024-03-08T07:39:12;101856.17;;;2.04;98.68
22572;BME280;11452;53.368;14.658;2024-03-08T07:44:18;101857.43;;;2.21;98.34
22572;BME280;11452;53.368;14.658;2024-03-08T07:49:24;101845.88;;;2.41;98.05
22572;BME280;11452;53.368;14.658;2024-03-08T07:54:31;101847.59;;;2.56;97.63
22572;BME280;11452;53.368;14.658;2024-03-08T07:59:36;101843.50;;;2.77;97.06
22572;BME280;11452;53.368;14.658;2024-03-08T08:04:42;101838.12;;;2.93;96.96
22572;BME280;11452;53.368;14.658;2024-03-08T08:09:49;101838.43;;;3.09;96.56
22572;BME280;11452;53.368;14.658;2024-03-08T08:14:55;101837.84;;;3.28;96.82
22572;BME280;11452;53.368;14.658;2024-03-08T08:20:01;101833.70;;;3.46;96.40
22572;BME280;11452;53.368;14.658;2024-03-08T08:25:08;101835.30;;;3.64;95.55
22572;BME280;11452;53.368;14.658;2024-03-08T08:30:16;101830.64;;;3.89;95.27
22572;BME280;11452;53.368;14.658;2024-03-08T08:35:22;101827.25;;;4.12;94.75
22572;BME280;11452;53.368;14.658;2024-03-08T08:40:28;101821.28;;;4.31;92.37
22572;BME280;11452;53.368;14.658;2024-03-08T08:45:36;101807.98;;;4.67;90.87
22572;BME280;11452;53.368;14.658;2024-03-08T08:50:43;101800.23;;;4.83;90.10
22572;BME280;11452;53.368;14.658;2024-03-08T08:55:49;101800.23;;;4.83;90.10
22572;BME280;11452;53.368;14.658;2024-03-08T09:00:55;101801.60;;;5.08;88.00
22572;BME280;11452;53.368;14.658;2024-03-08T09:06:01;101801.44;;;5.19;84.56
22572;BME280;11452;53.368;14.658;2024-03-08T09:11:07;101798.97;;;5.34;83.68
22572;BME280;11452;53.368;14.658;2024-03-08T09:16:13;101789.97;;;5.42;81.99
22572;BME280;11452;53.368;14.658;2024-03-08T09:21:19;101787.37;;;5.63;80.79
22572;BME280;11452;53.368;14.658;2024-03-08T09:26:26;101775.91;;;5.61;77.60
22572;BME280;11452;53.368;14.658;2024-03-08T09:31:33;101777.28;;;5.82;76.74
22572;BME280;11452;53.368;14.658;2024-03-08T09:36:39;101776.84;;;6.05;75.89
22572;BME280;11452;53.368;14.658;2024-03-08T09:41:46;101773.66;;;6.10;73.02
22572;BME280;11452;53.368;14.658;2024-03-08T09:46:55;101765.45;;;6.20;73.75
22572;BME280;11452;53.368;14.658;2024-03-08T09:52:03;101757.11;;;6.37;71.83
22572;BME280;11452;53.368;14.658;2024-03-08T09:57:09;101757.59;;;6.35;69.03
22572;BME280;11452;53.368;14.658;2024-03-08T10:02:16;101751.05;;;6.50;68.60
22572;BME280;11452;53.368;14.658;2024-03-08T10:07:23;101745.48;;;6.62;67.26
22572;BME280;11452;53.368;14.658;2024-03-08T10:12:29;101741.26;;;6.71;64.28
22572;BME280;11452;53.368;14.658;2024-03-08T10:17:35;101743.73;;;6.61;64.00
22572;BME280;11452;53.368;14.658;2024-03-08T10:22:42;101735.03;;;6.72;64.07
22572;BME280;11452;53.368;14.658;2024-03-08T10:27:50;101729.45;;;6.84;62.54
22572;BME280;11452;53.368;14.658;2024-03-08T10:32:56;101734.44;;;6.97;61.57
22572;BME280;11452;53.368;14.658;2024-03-08T10:38:04;101732.55;;;7.02;61.04
22572;BME280;11452;53.368;14.658;2024-03-08T10:43:17;101722.79;;;7.02;59.28
22572;BME280;11452;53.368;14.658;2024-03-08T10:48:37;101725.23;;;7.10;58.64
22572;BME280;11452;53.368;14.658;2024-03-08T10:53:45;101723.19;;;7.37;57.96
22572;BME280;11452;53.368;14.658;2024-03-08T10:58:51;101711.72;;;7.35;56.68
22572;BME280;11452;53.368;14.658;2024-03-08T11:03:57;101708.97;;;7.38;56.97
22572;BME280;11452;53.368;14.658;2024-03-08T11:09:50;101703.59;;;7.56;55.50
22572;BME280;11452;53.368;14.658;2024-03-08T11:19:36;101695.70;;;7.53;54.47
22572;BME280;11452;53.368;14.658;2024-03-08T11:24:41;101686.23;;;7.59;54.23
22572;BME280;11452;53.368;14.658;2024-03-08T11:30:02;101685.48;;;7.69;54.30
22572;BME280;11452;53.368;14.658;2024-03-08T11:35:21;101669.81;;;7.89;53.33
22572;BME280;11452;53.368;14.658;2024-03-08T11:40:31;101661.74;;;7.77;53.65
22572;BME280;11452;53.368;14.658;2024-03-08T11:45:38;101657.23;;;7.94;53.39
22572;BME280;11452;53.368;14.658;2024-03-08T11:50:45;101652.97;;;7.88;53.58
22572;BME280;11452;53.368;14.658;2024-03-08T11:55:52;101639.59;;;8.05;53.06
22572;BME280;11452;53.368;14.658;2024-03-08T12:01:05;101643.64;;;8.31;52.39
22572;BME280;11452;53.368;14.658;2024-03-08T12:06:11;101630.72;;;8.33;52.08
22572;BME280;11452;53.368;14.658;2024-03-08T12:11:21;101631.73;;;8.43;50.60
22572;BME280;11452;53.368;14.658;2024-03-08T12:16:32;101628.47;;;8.35;51.19
22572;BME280;11452;53.368;14.658;2024-03-08T12:21:38;101616.38;;;8.51;50.38
22572;BME280;11452;53.368;14.658;2024-03-08T12:26:46;101608.21;;;8.55;49.92
22572;BME280;11452;53.368;14.658;2024-03-08T12:32:01;101596.99;;;8.59;50.01
22572;BME280;11452;53.368;14.658;2024-03-08T12:37:06;101598.44;;;8.69;50.94
22572;BME280;11452;53.368;14.658;2024-03-08T12:42:13;101596.51;;;8.73;50.59
22572;BME280;11452;53.368;14.658;2024-03-08T12:47:19;101594.77;;;8.85;50.84
22572;BME280;11452;53.368;14.658;2024-03-08T12:52:25;101584.27;;;8.92;51.05
22572;BME280;11452;53.368;14.658;2024-03-08T12:57:31;101583.97;;;9.01;50.67
22572;BME280;11452;53.368;14.658;2024-03-08T13:02:43;101562.01;;;9.06;50.56
22572;BME280;11452;53.368;14.658;2024-03-08T13:07:46;101566.42;;;9.07;50.50
22572;BME280;11452;53.368;14.658;2024-03-08T13:12:54;101558.83;;;9.20;50.85
22572;BME280;11452;53.368;14.658;2024-03-08T13:18:01;101557.78;;;9.35;50.18
22572;BME280;11452;53.368;14.658;2024-03-08T13:23:07;101553.42;;;9.33;49.83
22572;BME280;11452;53.368;14.658;2024-03-08T13:28:14;101533.06;;;9.30;49.96
22572;BME280;11452;53.368;14.658;2024-03-08T13:33:20;101536.67;;;9.41;49.33
22572;BME280;11452;53.368;14.658;2024-03-08T13:38:27;101528.99;;;9.55;48.02
22572;BME280;11452;53.368;14.658;2024-03-08T13:43:33;101526.78;;;9.55;47.70
22572;BME280;11452;53.368;14.658;2024-03-08T13:48:40;101518.27;;;9.57;47.46
22572;BME280;11452;53.368;14.658;2024-03-08T13:53:46;101511.47;;;9.60;46.83
22572;BME280;11452;53.368;14.658;2024-03-08T13:58:51;101494.65;;;9.58;46.91
22572;BME280;11452;53.368;14.658;2024-03-08T14:03:59;101496.41;;;9.69;46.35
22572;BME280;11452;53.368;14.658;2024-03-08T14:09:05;101487.98;;;9.58;46.65
22572;BME280;11452;53.368;14.658;2024-03-08T14:14:12;101481.20;;;9.71;45.80
22572;BME280;11452;53.368;14.658;2024-03-08T14:19:18;101478.13;;;9.70;45.85
22572;BME280;11452;53.368;14.658;2024-03-08T14:24:24;101470.00;;;9.73;46.07
22572;BME280;11452;53.368;14.658;2024-03-08T14:29:30;101465.65;;;9.70;45.70
22572;BME280;11452;53.368;14.658;2024-03-08T14:34:37;101462.52;;;9.71;45.56
22572;BME280;11452;53.368;14.658;2024-03-08T14:39:44;101453.47;;;9.85;44.89
22572;BME280;11452;53.368;14.658;2024-03-08T14:44:49;101454.33;;;9.86;45.02
22572;BME280;11452;53.368;14.658;2024-03-08T14:49:56;101445.57;;;9.72;44.72
22572;BME280;11452;53.368;14.658;2024-03-08T14:55:02;101446.32;;;9.76;44.75
22572;BME280;11452;53.368;14.658;2024-03-08T15:00:11;101444.57;;;9.64;44.89
22572;BME280;11452;53.368;14.658;2024-03-08T15:05:34;101431.47;;;9.58;44.92
22572;BME280;11452;53.368;14.658;2024-03-08T15:10:41;101432.28;;;9.60;44.88
22572;BME280;11452;53.368;14.658;2024-03-08T15:15:50;101424.67;;;9.61;44.64
22572;BME280;11452;53.368;14.658;2024-03-08T15:21:04;101415.27;;;9.63;44.65
22572;BME280;11452;53.368;14.658;2024-03-08T15:26:13;101412.33;;;9.59;44.76
22572;BME280;11452;53.368;14.658;2024-03-08T15:31:18;101406.92;;;9.60;44.63
22572;BME280;11452;53.368;14.658;2024-03-08T15:36:27;101404.26;;;9.60;44.58
22572;BME280;11452;53.368;14.658;2024-03-08T15:41:35;101397.61;;;9.49;44.55
22572;BME280;11452;53.368;14.658;2024-03-08T15:46:41;101394.94;;;9.49;44.57
22572;BME280;11452;53.368;14.658;2024-03-08T15:51:47;101384.78;;;9.36;44.67
22572;BME280;11452;53.368;14.658;2024-03-08T15:56:53;101376.09;;;9.31;44.72
22572;BME280;11452;53.368;14.658;2024-03-08T16:01:58;101365.86;;;9.21;45.18
22572;BME280;11452;53.368;14.658;2024-03-08T16:07:04;101364.17;;;9.08;45.36
22572;BME280;11452;53.368;14.658;2024-03-08T16:12:10;101359.47;;;8.91;45.54
22572;BME280;11452;53.368;14.658;2024-03-08T16:17:16;101367.96;;;8.79;45.42
22572;BME280;11452;53.368;14.658;2024-03-08T16:22:22;101351.00;;;8.58;45.83
22572;BME280;11452;53.368;14.658;2024-03-08T16:27:28;101350.84;;;8.51;45.98
22572;BME280;11452;53.368;14.658;2024-03-08T16:32:34;101341.63;;;8.23;46.45
22572;BME280;11452;53.368;14.658;2024-03-08T16:37:39;101338.62;;;8.09;46.77
22572;BME280;11452;53.368;14.658;2024-03-08T16:42:47;101339.02;;;7.85;47.24
22572;BME280;11452;53.368;14.658;2024-03-08T16:47:57;101339.64;;;7.80;47.87
22572;BME280;11452;53.368;14.658;2024-03-08T16:53:04;101342.95;;;7.49;48.51
22572;BME280;11452;53.368;14.658;2024-03-08T16:58:10;101335.59;;;7.30;49.14
22572;BME280;11452;53.368;14.658;2024-03-08T17:03:17;101332.11;;;7.02;49.60
22572;BME280;11452;53.368;14.658;2024-03-08T17:08:23;101344.94;;;6.88;50.15
22572;BME280;11452;53.368;14.658;2024-03-08T17:13:29;101342.41;;;6.55;50.51
22572;BME280;11452;53.368;14.658;2024-03-08T17:18:36;101330.59;;;6.36;51.19
22572;BME280;11452;53.368;14.658;2024-03-08T17:23:42;101336.09;;;6.14;51.60
22572;BME280;11452;53.368;14.658;2024-03-08T17:28:47;101331.50;;;5.89;51.77
22572;BME280;11452;53.368;14.658;2024-03-08T17:33:55;101336.55;;;5.81;52.32
22572;BME280;11452;53.368;14.658;2024-03-08T17:39:01;101334.61;;;5.71;52.85
22572;BME280;11452;53.368;14.658;2024-03-08T17:44:07;101335.09;;;5.53;53.16
22572;BME280;11452;53.368;14.658;2024-03-08T17:49:14;101335.94;;;5.55;53.63
22572;BME280;11452;53.368;14.658;2024-03-08T17:54:20;101338.98;;;5.38;53.71
22572;BME280;11452;53.368;14.658;2024-03-08T17:59:26;101340.41;;;5.17;54.11
22572;BME280;11452;53.368;14.658;2024-03-08T18:04:32;101336.16;;;5.10;54.33
22572;BME280;11452;53.368;14.658;2024-03-08T18:09:38;101325.28;;;5.03;54.59
22572;BME280;11452;53.368;14.658;2024-03-08T18:14:44;101328.09;;;4.97;54.92
22572;BME280;11452;53.368;14.658;2024-03-08T18:19:49;101328.63;;;4.74;55.30
22572;BME280;11452;53.368;14.658;2024-03-08T18:24:56;101333.30;;;4.63;55.79
22572;BME280;11452;53.368;14.658;2024-03-08T18:30:02;101327.18;;;4.40;56.25
22572;BME280;11452;53.368;14.658;2024-03-08T18:35:08;101331.48;;;4.03;57.21
22572;BME280;11452;53.368;14.658;2024-03-08T18:40:16;101331.48;;;4.03;57.21
22572;BME280;11452;53.368;14.658;2024-03-08T18:45:24;101328.30;;;3.86;57.59
22572;BME280;11452;53.368;14.658;2024-03-08T18:50:30;101323.81;;;3.67;58.21
22572;BME280;11452;53.368;14.658;2024-03-08T18:55:36;101325.52;;;3.45;58.81
22572;BME280;11452;53.368;14.658;2024-03-08T19:00:42;101336.42;;;3.26;58.98
22572;BME280;11452;53.368;14.658;2024-03-08T19:05:50;101325.28;;;3.07;59.87
22572;BME280;11452;53.368;14.658;2024-03-08T19:10:56;101314.48;;;2.95;60.57
22572;BME280;11452;53.368;14.658;2024-03-08T19:16:02;101321.72;;;2.81;60.84
22572;BME280;11452;53.368;14.658;2024-03-08T19:21:09;101318.41;;;2.67;61.19
22572;BME280;11452;53.368;14.658;2024-03-08T19:26:15;101313.72;;;2.59;62.03
22572;BME280;11452;53.368;14.658;2024-03-08T19:31:22;101316.02;;;2.50;62.24
22572;BME280;11452;53.368;14.658;2024-03-08T19:36:28;101316.94;;;2.48;62.69
22572;BME280;11452;53.368;14.658;2024-03-08T19:41:34;101318.16;;;2.55;63.58
22572;BME280;11452;53.368;14.658;2024-03-08T19:46:46;101321.47;;;2.69;64.17
22572;BME280;11452;53.368;14.658;2024-03-08T19:51:47;101317.03;;;2.71;63.99
22572;BME280;11452;53.368;14.658;2024-03-08T19:56:53;101311.41;;;2.64;64.32
22572;BME280;11452;53.368;14.658;2024-03-08T20:01:59;101310.20;;;2.58;64.61
22572;BME280;11452;53.368;14.658;2024-03-08T20:07:06;101309.99;;;2.72;65.54
22572;BME280;11452;53.368;14.658;2024-03-08T20:12:12;101302.73;;;2.86;65.55
22572;BME280;11452;53.368;14.658;2024-03-08T20:17:18;101297.63;;;3.02;65.72
22572;BME280;11452;53.368;14.658;2024-03-08T20:22:24;101295.39;;;3.05;65.79
22572;BME280;11452;53.368;14.658;2024-03-08T20:27:30;101297.25;;;2.98;66.03
22572;BME280;11452;53.368;14.658;2024-03-08T20:32:36;101292.51;;;3.19;66.29
22572;BME280;11452;53.368;14.658;2024-03-08T20:37:44;101288.15;;;3.16;66.12
22572;BME280;11452;53.368;14.658;2024-03-08T20:42:50;101287.25;;;3.17;66.56
22572;BME280;11452;53.368;14.658;2024-03-08T20:47:56;101274.20;;;3.09;66.50
22572;BME280;11452;53.368;14.658;2024-03-08T20:53:03;101272.24;;;2.95;66.76
22572;BME280;11452;53.368;14.658;2024-03-08T20:58:11;101266.18;;;2.89;67.17
22572;BME280;11452;53.368;14.658;2024-03-08T21:03:18;101262.31;;;2.83;67.37
22572;BME280;11452;53.368;14.658;2024-03-08T21:08:24;101261.73;;;2.64;67.59
22572;BME280;11452;53.368;14.658;2024-03-08T21:13:33;101258.92;;;2.46;68.36
22572;BME280;11452;53.368;14.658;2024-03-08T21:18:40;101251.35;;;2.53;68.59
22572;BME280;11452;53.368;14.658;2024-03-08T21:23:47;101243.77;;;2.30;68.63
22572;BME280;11452;53.368;14.658;2024-03-08T21:28:53;101237.17;;;2.30;69.17
22572;BME280;11452;53.368;14.658;2024-03-08T21:33:58;101240.87;;;2.19;69.57
22572;BME280;11452;53.368;14.658;2024-03-08T21:39:05;101239.64;;;2.11;69.60
22572;BME280;11452;53.368;14.658;2024-03-08T21:44:12;101235.00;;;1.97;70.40
22572;BME280;11452;53.368;14.658;2024-03-08T21:49:19;101227.73;;;1.83;70.58
22572;BME280;11452;53.368;14.658;2024-03-08T21:54:25;101218.72;;;1.66;70.85
22572;BME280;11452;53.368;14.658;2024-03-08T21:59:32;101213.48;;;1.63;71.41
22572;BME280;11452;53.368;14.658;2024-03-08T22:04:39;101203.05;;;1.54;71.66
22572;BME280;11452;53.368;14.658;2024-03-08T22:09:45;101204.94;;;1.43;71.93
22572;BME280;11452;53.368;14.658;2024-03-08T22:14:51;101208.27;;;1.18;71.64
22572;BME280;11452;53.368;14.658;2024-03-08T22:19:56;101203.22;;;0.96;71.88
22572;BME280;11452;53.368;14.658;2024-03-08T22:25:05;101209.52;;;0.79;72.09
22572;BME280;11452;53.368;14.658;2024-03-08T22:30:12;101214.91;;;0.63;72.70
22572;BME280;11452;53.368;14.658;2024-03-08T22:35:20;101209.78;;;0.48;73.11
22572;BME280;11452;53.368;14.658;2024-03-08T22:40:27;101198.94;;;0.33;73.18
22572;BME280;11452;53.368;14.658;2024-03-08T22:45:33;101199.87;;;0.22;73.34
22572;BME280;11452;53.368;14.658;2024-03-08T22:50:39;101203.44;;;0.16;74.13
22572;BME280;11452;53.368;14.658;2024-03-08T22:55:44;101197.78;;;0.08;74.28
22572;BME280;11452;53.368;14.658;2024-03-08T23:00:50;101195.23;;;-0.02;75.20
22572;BME280;11452;53.368;14.658;2024-03-08T23:06:04;101191.30;;;-0.06;75.64
22572;BME280;11452;53.368;14.658;2024-03-08T23:11:11;101188.25;;;-0.07;75.62
22572;BME280;11452;53.368;14.658;2024-03-08T23:16:17;101190.91;;;-0.15;76.06
22572;BME280;11452;53.368;14.658;2024-03-08T23:21:24;101182.59;;;-0.17;76.75
22572;BME280;11452;53.368;14.658;2024-03-08T23:26:31;101169.89;;;-0.16;77.17
22572;BME280;11452;53.368;14.658;2024-03-08T23:31:36;101172.08;;;-0.14;77.46
22572;BME280;11452;53.368;14.658;2024-03-08T23:36:44;101167.70;;;-0.14;78.25
22572;BME280;11452;53.368;14.658;2024-03-08T23:41:50;101162.02;;;-0.16;78.11
22572;BME280;11452;53.368;14.658;2024-03-08T23:46:56;101168.55;;;-0.09;78.57
22572;BME280;11452;53.368;14.658;2024-03-08T23:52:01;101165.56;;;-0.20;78.91
22572;BME280;11452;53.368;14.658;2024-03-08T23:57:08;101166.49;;;-0.35;79.11
